createdAt,value
2017-05-31T00:00:55.802Z,14.24
2017-05-31T00:03:24.138Z,16.10
2017-05-31T00:05:52.443Z,13.54
2017-05-31T00:08:20.794Z,14.74
2017-05-31T00:10:49.122Z,15.56
2017-05-31T00:13:17.431Z,16.30
2017-05-31T00:15:45.920Z,15.20
2017-05-31T00:18:14.399Z,15.22
2017-05-31T00:20:42.797Z,16.64
2017-05-31T00:23:11.102Z,17.20
2017-05-31T00:25:39.442Z,16.70
2017-05-31T00:28:07.741Z,17.64
2017-05-31T00:30:36.045Z,15.78
2017-05-31T00:33:04.369Z,15.92
2017-05-31T00:35:32.847Z,16.40
2017-05-31T00:38:01.327Z,17.22
2017-05-31T00:40:29.809Z,16.08
2017-05-31T00:42:58.109Z,17.14
2017-05-31T00:45:26.434Z,17.64
2017-05-31T00:47:54.945Z,17.56
2017-05-31T00:50:23.341Z,17.92
2017-05-31T00:52:51.669Z,16.88
2017-05-31T00:55:19.974Z,16.84
2017-05-31T00:57:48.283Z,16.52
2017-05-31T01:00:16.650Z,15.76
2017-05-31T01:02:44.952Z,15.24
2017-05-31T01:05:13.298Z,15.88
2017-05-31T01:07:41.768Z,17.80
2017-05-31T01:10:10.172Z,16.28
2017-05-31T01:12:38.538Z,15.66
2017-05-31T01:15:06.914Z,16.16
2017-05-31T01:17:35.270Z,15.20
2017-05-31T01:20:03.683Z,14.74
2017-05-31T01:22:32.056Z,14.98
2017-05-31T01:25:00.430Z,13.98
2017-05-31T01:27:28.818Z,13.72
2017-05-31T01:29:57.186Z,14.96
2017-05-31T01:32:25.491Z,14.64
2017-05-31T01:34:53.843Z,14.00
2017-05-31T01:37:22.227Z,14.50
2017-05-31T01:39:50.545Z,13.80
2017-05-31T01:42:18.977Z,14.88
2017-05-31T01:44:47.281Z,13.56
2017-05-31T01:47:15.629Z,13.94
2017-05-31T01:49:44.012Z,13.88
2017-05-31T01:52:12.309Z,14.74
2017-05-31T01:54:40.677Z,15.68
2017-05-31T01:57:09.046Z,16.56
2017-05-31T01:59:37.422Z,15.06
2017-05-31T02:02:05.895Z,15.64
2017-05-31T02:04:34.194Z,15.84
2017-05-31T02:07:02.562Z,16.72
2017-05-31T02:09:31.032Z,17.04
2017-05-31T02:11:59.422Z,16.38
2017-05-31T02:14:27.818Z,16.20
2017-05-31T02:16:56.199Z,16.56
2017-05-31T02:19:24.506Z,17.68
2017-05-31T02:21:52.926Z,15.70
2017-05-31T02:24:21.230Z,18.66
2017-05-31T02:26:49.590Z,18.46
2017-05-31T02:29:17.902Z,18.74
2017-05-31T02:31:46.257Z,18.36
2017-05-31T02:34:14.641Z,18.12
2017-05-31T02:36:42.953Z,18.18
2017-05-31T02:39:11.259Z,18.54
2017-05-31T02:41:39.669Z,19.98
2017-05-31T02:44:08.041Z,18.92
2017-05-31T02:46:36.725Z,18.84
2017-05-31T02:49:05.105Z,20.04
2017-05-31T02:51:33.411Z,19.02
2017-05-31T02:54:01.751Z,20.76
2017-05-31T02:56:30.055Z,20.66
2017-05-31T02:58:58.358Z,22.40
2017-05-31T03:01:26.682Z,24.50
2017-05-31T03:03:55.013Z,23.02
2017-05-31T03:06:23.347Z,22.60
2017-05-31T03:08:51.730Z,23.14
2017-05-31T03:11:20.318Z,23.50
2017-05-31T03:13:48.726Z,23.24
2017-05-31T03:16:17.054Z,24.50
2017-05-31T03:18:45.434Z,22.40
2017-05-31T03:21:13.830Z,24.22
2017-05-31T03:23:42.146Z,25.88
2017-05-31T03:26:10.479Z,23.00
2017-05-31T03:28:38.797Z,24.82
2017-05-31T03:31:07.123Z,23.12
2017-05-31T03:33:35.603Z,23.12
2017-05-31T03:36:03.909Z,22.16
2017-05-31T03:38:32.269Z,21.74
2017-05-31T03:41:00.593Z,21.78
2017-05-31T03:43:28.929Z,22.80
2017-05-31T03:45:57.303Z,28.74
2017-05-31T03:48:25.695Z,22.26
2017-05-31T03:50:53.997Z,22.02
2017-05-31T03:53:22.327Z,20.32
2017-05-31T03:55:51.225Z,20.62
2017-05-31T03:58:19.524Z,21.92
2017-05-31T04:00:48.079Z,19.94
2017-05-31T04:03:16.560Z,20.22
2017-05-31T04:05:44.870Z,19.34
2017-05-31T04:08:13.226Z,19.50
2017-05-31T04:10:41.530Z,18.60
2017-05-31T04:13:09.830Z,19.90
2017-05-31T04:15:38.257Z,19.88
2017-05-31T04:18:06.731Z,18.56
2017-05-31T04:20:35.212Z,18.26
2017-05-31T04:23:03.617Z,20.28
2017-05-31T04:25:31.986Z,19.30
2017-05-31T04:28:00.354Z,20.40
2017-05-31T04:30:28.658Z,20.78
2017-05-31T04:32:57.823Z,20.56
2017-05-31T04:35:26.217Z,19.98
2017-05-31T04:37:54.683Z,21.42
2017-05-31T04:40:23.077Z,20.02
2017-05-31T04:42:51.387Z,19.98
2017-05-31T04:45:19.689Z,21.46
2017-05-31T04:47:48.017Z,19.92
2017-05-31T04:50:16.699Z,21.26
2017-05-31T04:52:44.997Z,19.12
2017-05-31T04:55:13.292Z,20.02
2017-05-31T04:57:41.817Z,19.34
2017-05-31T05:00:10.219Z,19.24
2017-05-31T05:02:38.522Z,19.28
2017-05-31T05:05:06.846Z,20.54
2017-05-31T05:07:35.150Z,20.08
2017-05-31T05:10:03.514Z,19.82
2017-05-31T05:12:31.813Z,19.28
2017-05-31T05:15:00.118Z,19.06
2017-05-31T05:17:28.558Z,19.36
2017-05-31T05:19:57.020Z,19.12
2017-05-31T05:22:26.042Z,20.34
2017-05-31T05:24:54.344Z,21.62
2017-05-31T05:27:22.782Z,21.60
2017-05-31T05:29:51.090Z,20.76
2017-05-31T05:32:19.442Z,20.90
2017-05-31T05:34:47.816Z,19.78
2017-05-31T05:37:16.288Z,21.58
2017-05-31T05:39:44.608Z,20.36
2017-05-31T05:42:12.951Z,21.40
2017-05-31T05:44:41.253Z,21.36
2017-05-31T05:47:09.558Z,20.86
2017-05-31T05:49:37.889Z,19.90
2017-05-31T05:52:06.357Z,21.02
2017-05-31T05:54:34.685Z,19.82
2017-05-31T05:57:03.012Z,20.94
2017-05-31T05:59:32.105Z,18.62
2017-05-31T06:02:00.443Z,19.24
2017-05-31T06:04:28.747Z,18.84
2017-05-31T06:06:57.049Z,18.98
2017-05-31T06:09:25.387Z,18.10
2017-05-31T06:11:53.690Z,19.88
2017-05-31T06:14:21.994Z,19.68
2017-05-31T06:16:50.348Z,19.60
2017-05-31T06:19:18.670Z,17.66
2017-05-31T06:21:47.006Z,18.50
2017-05-31T06:24:15.306Z,17.92
2017-05-31T06:26:43.626Z,18.76
2017-05-31T06:29:11.932Z,18.60
2017-05-31T06:31:40.254Z,18.82
2017-05-31T06:34:08.712Z,17.16
2017-05-31T06:36:37.030Z,17.94
2017-05-31T06:39:05.334Z,18.32
2017-05-31T06:41:33.674Z,17.84
2017-05-31T06:44:01.978Z,16.70
2017-05-31T06:46:30.291Z,17.60
2017-05-31T06:48:58.638Z,17.38
2017-05-31T06:51:26.942Z,18.46
2017-05-31T06:53:55.241Z,16.36
2017-05-31T06:56:23.606Z,16.70
2017-05-31T06:58:51.915Z,16.52
2017-05-31T07:01:20.244Z,15.70
2017-05-31T07:03:48.581Z,16.12
2017-05-31T07:06:16.887Z,16.56
2017-05-31T07:08:45.197Z,15.70
2017-05-31T07:11:13.533Z,16.24
2017-05-31T07:13:41.833Z,15.20
2017-05-31T07:16:10.145Z,13.96
2017-05-31T07:18:38.473Z,17.02
2017-05-31T07:21:06.779Z,16.96
2017-05-31T07:23:35.082Z,16.90
2017-05-31T07:26:03.426Z,15.86
2017-05-31T07:28:31.726Z,15.86
2017-05-31T07:31:00.029Z,15.02
2017-05-31T07:33:28.350Z,15.84
2017-05-31T07:35:56.650Z,13.02
2017-05-31T07:38:24.982Z,13.40
2017-05-31T07:40:53.282Z,15.34
2017-05-31T07:43:21.582Z,14.46
2017-05-31T07:45:49.898Z,13.40
2017-05-31T07:48:18.234Z,14.12
2017-05-31T07:50:46.541Z,14.70
2017-05-31T07:53:14.837Z,14.44
2017-05-31T07:55:43.243Z,12.88
2017-05-31T07:58:11.585Z,13.72
2017-05-31T08:00:39.889Z,12.56
2017-05-31T08:03:08.277Z,12.08
2017-05-31T08:05:36.602Z,12.16
2017-05-31T08:08:04.910Z,11.92
2017-05-31T08:10:33.310Z,9.90
2017-05-31T08:13:01.610Z,7.78
2017-05-31T08:15:29.937Z,8.92
2017-05-31T08:17:58.347Z,10.72
2017-05-31T08:20:26.646Z,10.64
2017-05-31T08:22:54.973Z,11.42
2017-05-31T08:25:23.275Z,12.52
2017-05-31T08:27:51.583Z,12.56
2017-05-31T08:30:19.918Z,12.56
2017-05-31T08:32:48.312Z,13.12
2017-05-31T08:35:16.618Z,12.44
2017-05-31T08:37:44.951Z,13.38
2017-05-31T08:40:13.267Z,14.30
2017-05-31T08:42:41.594Z,11.12
2017-05-31T08:45:09.903Z,12.88
2017-05-31T08:47:38.254Z,12.08
2017-05-31T08:50:06.554Z,11.54
2017-05-31T08:52:34.858Z,11.12
2017-05-31T08:55:03.193Z,11.52
2017-05-31T08:57:31.485Z,9.28
2017-05-31T08:59:59.789Z,9.32
2017-05-31T09:02:28.118Z,9.32
2017-05-31T09:04:56.410Z,9.40
2017-05-31T09:07:24.709Z,8.86
2017-05-31T09:09:53.043Z,9.96
2017-05-31T09:12:21.343Z,9.24
2017-05-31T09:14:49.649Z,10.40
2017-05-31T09:17:17.981Z,9.06
2017-05-31T09:19:46.269Z,9.18
2017-05-31T09:22:14.565Z,10.06
2017-05-31T09:24:42.889Z,9.62
2017-05-31T09:27:11.187Z,8.92
2017-05-31T09:29:39.486Z,9.14
2017-05-31T09:32:07.826Z,9.18
2017-05-31T09:34:36.119Z,8.68
2017-05-31T09:37:04.418Z,8.12
2017-05-31T09:39:32.746Z,8.90
2017-05-31T09:42:01.044Z,9.48
2017-05-31T09:44:29.350Z,9.94
2017-05-31T09:46:57.950Z,11.12
2017-05-31T09:49:26.246Z,10.72
2017-05-31T09:51:54.549Z,10.08
2017-05-31T09:54:22.883Z,9.84
2017-05-31T09:56:51.178Z,9.76
2017-05-31T09:59:19.473Z,9.20
2017-05-31T10:01:47.817Z,9.42
2017-05-31T10:04:16.121Z,8.40
2017-05-31T10:06:44.451Z,10.52
2017-05-31T10:09:12.769Z,10.80
2017-05-31T10:11:41.289Z,9.80
2017-05-31T10:14:09.579Z,8.62
2017-05-31T10:16:37.967Z,8.50
2017-05-31T10:19:06.298Z,9.80
2017-05-31T10:21:34.596Z,10.28
2017-05-31T10:24:02.886Z,8.56
2017-05-31T10:26:31.208Z,8.82
2017-05-31T10:28:59.498Z,8.42
2017-05-31T10:31:27.798Z,8.00
2017-05-31T10:33:56.118Z,10.22
2017-05-31T10:36:24.414Z,9.00
2017-05-31T10:38:52.730Z,8.20
2017-05-31T10:41:21.140Z,10.30
2017-05-31T10:43:49.458Z,7.16
2017-05-31T10:46:17.758Z,7.32
2017-05-31T10:48:46.049Z,7.14
2017-05-31T10:51:14.369Z,6.76
2017-05-31T10:53:42.658Z,5.46
2017-05-31T10:56:10.962Z,6.52
2017-05-31T10:58:39.289Z,6.66
2017-05-31T11:01:07.589Z,5.90
2017-05-31T11:03:35.881Z,6.28
2017-05-31T11:06:04.201Z,6.48
2017-05-31T11:08:32.589Z,7.20
2017-05-31T11:11:00.888Z,6.54
2017-05-31T11:13:29.244Z,7.76
2017-05-31T11:15:57.538Z,8.08
2017-05-31T11:18:25.828Z,6.30
2017-05-31T11:20:54.175Z,6.80
2017-05-31T11:23:22.479Z,6.24
2017-05-31T11:25:50.771Z,6.38
2017-05-31T11:28:19.103Z,5.74
2017-05-31T11:30:47.402Z,4.70
2017-05-31T11:33:15.689Z,5.68
2017-05-31T11:35:44.010Z,5.72
2017-05-31T11:38:12.302Z,5.90
2017-05-31T11:40:40.622Z,5.72
2017-05-31T11:43:08.918Z,6.38
2017-05-31T11:45:37.235Z,6.66
2017-05-31T11:48:05.546Z,5.88
2017-05-31T11:50:33.862Z,6.22
2017-05-31T11:53:02.280Z,6.50
2017-05-31T11:55:30.574Z,9.46
2017-05-31T11:57:58.897Z,7.72
2017-05-31T12:00:27.194Z,6.38
2017-05-31T12:02:55.591Z,5.16
2017-05-31T12:05:23.906Z,4.02
2017-05-31T12:07:52.205Z,4.96
2017-05-31T12:10:20.545Z,4.96
2017-05-31T12:12:48.845Z,4.96
2017-05-31T12:15:17.142Z,5.10
2017-05-31T12:17:45.460Z,5.70
2017-05-31T12:20:13.777Z,5.90
2017-05-31T12:22:42.075Z,5.78
2017-05-31T12:25:10.704Z,5.72
2017-05-31T12:27:39.021Z,5.22
2017-05-31T12:30:07.320Z,4.18
2017-05-31T12:32:35.654Z,4.84
2017-05-31T12:35:03.950Z,3.98
2017-05-31T12:37:32.246Z,4.42
2017-05-31T12:40:00.564Z,4.90
2017-05-31T12:42:28.879Z,3.92
2017-05-31T12:44:57.178Z,4.54
2017-05-31T12:47:25.506Z,4.00
2017-05-31T12:49:53.810Z,4.32
2017-05-31T12:52:22.109Z,4.12
2017-05-31T12:54:50.426Z,4.20
2017-05-31T12:57:18.774Z,4.02
2017-05-31T12:59:47.074Z,4.36
2017-05-31T13:02:15.370Z,5.06
2017-05-31T13:04:43.701Z,4.98
2017-05-31T13:07:11.999Z,4.72
2017-05-31T13:09:40.397Z,5.20
2017-05-31T13:12:08.727Z,4.30
2017-05-31T13:14:37.049Z,4.74
2017-05-31T13:17:05.347Z,4.32
2017-05-31T13:19:33.683Z,4.22
2017-05-31T13:22:02.025Z,5.20
2017-05-31T13:24:30.317Z,4.97
2017-05-31T13:26:58.615Z,4.80
2017-05-31T13:29:26.946Z,7.07
2017-05-31T13:31:55.242Z,4.77
2017-05-31T13:34:23.537Z,4.73
2017-05-31T13:36:51.856Z,4.37
2017-05-31T13:39:20.159Z,4.53
2017-05-31T13:41:48.457Z,4.72
2017-05-31T13:44:16.782Z,4.52
2017-05-31T13:46:45.079Z,4.18
2017-05-31T13:49:13.376Z,4.97
2017-05-31T13:51:41.698Z,4.67
2017-05-31T13:54:09.988Z,4.13
2017-05-31T13:56:38.285Z,4.63
2017-05-31T13:59:06.610Z,3.82
2017-05-31T14:01:34.913Z,4.22
2017-05-31T14:04:03.206Z,3.65
2017-05-31T14:06:31.526Z,3.85
2017-05-31T14:08:59.822Z,4.08
2017-05-31T14:11:28.151Z,4.67
2017-05-31T14:13:56.462Z,5.28
2017-05-31T14:16:24.865Z,4.38
2017-05-31T14:18:53.181Z,4.32
2017-05-31T14:21:21.485Z,4.38
2017-05-31T14:23:49.813Z,4.38
2017-05-31T14:26:18.114Z,4.52
2017-05-31T14:28:46.412Z,4.20
2017-05-31T14:31:14.748Z,4.10
2017-05-31T14:33:43.047Z,4.10
2017-05-31T14:36:11.607Z,4.52
2017-05-31T14:38:39.920Z,3.67
2017-05-31T14:41:08.218Z,4.55
2017-05-31T14:43:36.528Z,4.20
2017-05-31T14:46:04.843Z,4.10
2017-05-31T14:48:33.171Z,3.65
2017-05-31T14:51:01.467Z,3.45
2017-05-31T14:53:29.830Z,5.40
2017-05-31T14:55:58.162Z,3.85
2017-05-31T14:58:26.466Z,3.22
2017-05-31T15:00:54.802Z,3.92
2017-05-31T15:03:23.130Z,3.97
2017-05-31T15:05:51.520Z,4.13
2017-05-31T15:08:19.815Z,4.18
2017-05-31T15:10:48.134Z,3.65
2017-05-31T15:13:16.450Z,4.22
2017-05-31T15:15:44.777Z,4.07
2017-05-31T15:18:13.085Z,4.02
2017-05-31T15:20:41.483Z,3.85
2017-05-31T15:23:09.801Z,4.52
2017-05-31T15:25:38.102Z,3.85
2017-05-31T15:28:06.416Z,4.17
2017-05-31T15:30:34.730Z,3.83
2017-05-31T15:33:03.053Z,3.42
2017-05-31T15:35:31.450Z,3.37
2017-05-31T15:37:59.751Z,3.90
2017-05-31T15:40:28.073Z,3.83
2017-05-31T15:42:56.370Z,3.65
2017-05-31T15:45:24.759Z,3.33
2017-05-31T15:47:53.066Z,3.77
2017-05-31T15:50:21.362Z,3.98
2017-05-31T15:52:49.681Z,4.00
2017-05-31T15:55:18.287Z,4.70
2017-05-31T15:57:46.586Z,3.52
2017-05-31T16:00:14.950Z,7.94
2017-05-31T16:02:43.247Z,4.00
2017-05-31T16:05:11.554Z,4.88
2017-05-31T16:07:39.890Z,4.40
2017-05-31T16:10:08.250Z,4.10
2017-05-31T16:12:36.560Z,3.72
2017-05-31T16:15:04.996Z,4.36
2017-05-31T16:17:33.393Z,3.54
2017-05-31T16:20:01.696Z,4.40
2017-05-31T16:22:30.130Z,4.10
2017-05-31T16:24:58.611Z,5.94
2017-05-31T16:27:28.021Z,4.04
2017-05-31T16:29:56.617Z,5.58
2017-05-31T16:32:24.937Z,3.76
2017-05-31T16:34:53.455Z,3.76
2017-05-31T16:37:30.361Z,3.66
2017-05-31T16:39:58.687Z,4.38
2017-05-31T16:42:27.710Z,3.92
2017-05-31T16:44:56.660Z,9.72
2017-05-31T16:47:24.985Z,4.46
2017-05-31T16:49:53.359Z,4.14
2017-05-31T16:52:21.733Z,3.88
2017-05-31T16:54:50.114Z,3.94
2017-05-31T16:57:18.411Z,4.26
2017-05-31T16:59:46.703Z,4.76
2017-05-31T17:02:15.139Z,4.64
2017-05-31T17:04:43.458Z,5.40
2017-05-31T17:07:11.826Z,4.40
2017-05-31T17:09:40.146Z,4.08
2017-05-31T17:12:08.474Z,6.42
2017-05-31T17:14:36.774Z,4.26
2017-05-31T17:17:05.106Z,4.30
2017-05-31T17:19:33.646Z,4.52
2017-05-31T17:22:01.979Z,4.28
2017-05-31T17:24:30.281Z,3.92
2017-05-31T17:26:58.594Z,4.44
2017-05-31T17:29:26.907Z,4.50
2017-05-31T17:31:55.285Z,7.16
2017-05-31T17:34:23.593Z,4.22
2017-05-31T17:36:52.245Z,4.48
2017-05-31T17:39:20.547Z,4.20
2017-05-31T17:41:48.951Z,4.52
2017-05-31T17:44:17.274Z,4.02
2017-05-31T17:46:45.572Z,4.56
2017-05-31T17:49:13.892Z,4.80
2017-05-31T17:51:42.195Z,5.32
2017-05-31T17:54:10.776Z,4.58
2017-05-31T17:56:39.094Z,4.44
2017-05-31T17:59:07.439Z,12.80
2017-05-31T18:01:35.736Z,5.26
2017-05-31T18:04:04.040Z,4.84
2017-05-31T18:06:32.367Z,5.98
2017-05-31T18:09:00.666Z,10.26
2017-05-31T18:11:28.978Z,6.02
2017-05-31T18:13:57.406Z,7.00
2017-05-31T18:16:25.782Z,5.48
2017-05-31T18:18:54.105Z,4.64
2017-05-31T18:21:22.424Z,4.28
2017-05-31T18:23:50.763Z,6.74
2017-05-31T18:26:19.098Z,4.44
2017-05-31T18:28:47.483Z,8.96
2017-05-31T18:31:16.047Z,7.62
2017-05-31T18:33:44.357Z,16.60
2017-05-31T18:36:12.665Z,9.40
2017-05-31T18:38:41.003Z,11.62
2017-05-31T18:41:09.409Z,6.86
2017-05-31T18:43:37.745Z,49.16
2017-05-31T18:46:06.079Z,10.32
2017-05-31T18:48:34.381Z,10.12
2017-05-31T18:51:05.611Z,7.92
2017-05-31T18:53:33.911Z,4.96
2017-05-31T18:56:02.287Z,5.78
2017-05-31T18:58:31.172Z,5.00
2017-05-31T19:00:59.857Z,5.38
2017-05-31T19:03:28.176Z,4.50
2017-05-31T19:05:56.518Z,7.84
2017-05-31T19:08:24.898Z,5.26
2017-05-31T19:10:53.294Z,10.70
2017-05-31T19:13:21.636Z,18.70
2017-05-31T19:15:49.961Z,15.86
2017-05-31T19:18:18.402Z,11.70
2017-05-31T19:20:46.717Z,6.00
2017-05-31T19:23:15.026Z,7.86
2017-05-31T19:25:43.377Z,12.72
2017-05-31T19:28:11.762Z,11.72
2017-05-31T19:30:40.133Z,13.60
2017-05-31T19:33:08.464Z,16.82
2017-05-31T19:35:36.774Z,14.00
2017-05-31T19:38:05.141Z,10.58
2017-05-31T19:40:33.465Z,10.64
2017-05-31T19:43:01.789Z,7.12
2017-05-31T19:45:30.167Z,5.50
2017-05-31T19:47:58.575Z,5.04
2017-05-31T19:50:26.899Z,13.10
2017-05-31T19:52:55.201Z,35.08
2017-05-31T19:55:23.571Z,37.62
2017-05-31T19:57:51.969Z,21.16
2017-05-31T20:00:20.354Z,12.40
2017-05-31T20:02:48.806Z,12.44
2017-05-31T20:05:17.557Z,6.40
2017-05-31T20:07:45.862Z,6.20
2017-05-31T20:10:14.222Z,8.74
2017-05-31T20:12:42.546Z,18.46
2017-05-31T20:15:10.912Z,20.44
2017-05-31T20:17:39.638Z,18.32
2017-05-31T20:20:07.950Z,71.98
2017-05-31T20:22:36.356Z,28.46
2017-05-31T20:25:04.677Z,28.14
2017-05-31T20:27:33.018Z,9.72
2017-05-31T20:30:01.389Z,9.10
2017-05-31T20:32:29.698Z,9.08
2017-05-31T20:34:58.043Z,5.26
2017-05-31T20:37:26.341Z,5.26
2017-05-31T20:39:54.641Z,6.04
2017-05-31T20:42:22.958Z,5.94
2017-05-31T20:44:51.316Z,7.34
2017-05-31T20:47:19.604Z,5.30
2017-05-31T20:49:47.937Z,7.24
2017-05-31T20:52:16.317Z,5.10
2017-05-31T20:54:44.646Z,5.84
2017-05-31T20:57:12.965Z,5.46
2017-05-31T20:59:41.262Z,5.08
2017-05-31T21:02:09.583Z,5.56
2017-05-31T21:04:37.886Z,5.64
2017-05-31T21:07:06.231Z,5.10
2017-05-31T21:09:34.622Z,7.32
2017-05-31T21:12:02.990Z,5.76
2017-05-31T21:14:31.378Z,21.46
2017-05-31T21:16:59.677Z,6.16
2017-05-31T21:19:28.009Z,5.68
2017-05-31T21:21:56.492Z,5.40
2017-05-31T21:24:24.972Z,4.98
2017-05-31T21:26:53.365Z,6.08
2017-05-31T21:29:21.741Z,5.16
2017-05-31T21:31:50.037Z,5.12
2017-05-31T21:34:18.490Z,6.40
2017-05-31T21:36:46.967Z,5.34
2017-05-31T21:39:15.337Z,12.62
2017-05-31T21:41:43.741Z,5.82
2017-05-31T21:44:12.113Z,5.54
2017-05-31T21:46:40.450Z,5.94
2017-05-31T21:49:08.767Z,5.52
2017-05-31T21:51:37.150Z,9.52
2017-05-31T21:54:05.483Z,6.40
2017-05-31T21:56:33.815Z,5.62
2017-05-31T21:59:02.183Z,6.20
2017-05-31T22:01:30.559Z,5.72
2017-05-31T22:03:58.854Z,5.38
2017-05-31T22:06:27.144Z,5.64
2017-05-31T22:08:55.490Z,6.66
2017-05-31T22:11:23.866Z,6.42
2017-05-31T22:13:52.234Z,6.26
2017-05-31T22:16:20.563Z,9.46
2017-05-31T22:18:48.897Z,6.00
2017-05-31T22:21:17.782Z,6.80
2017-05-31T22:23:46.111Z,6.76
2017-05-31T22:26:14.486Z,6.44
2017-05-31T22:28:42.782Z,6.26
2017-05-31T22:31:11.100Z,6.80
2017-05-31T22:33:39.401Z,6.52
2017-05-31T22:36:07.851Z,6.54
2017-05-31T22:38:36.145Z,6.52
2017-05-31T22:41:04.606Z,6.96
2017-05-31T22:43:32.994Z,7.28
2017-05-31T22:46:01.297Z,6.56
2017-05-31T22:48:29.675Z,6.72
2017-05-31T22:50:58.021Z,5.98
2017-05-31T22:53:26.719Z,7.26
2017-05-31T22:55:55.186Z,7.98
2017-05-31T22:58:23.487Z,6.08
2017-05-31T23:00:51.807Z,7.54
2017-05-31T23:03:20.116Z,7.38
2017-05-31T23:05:48.411Z,7.74
2017-05-31T23:08:16.774Z,8.26
2017-05-31T23:10:45.152Z,7.38
2017-05-31T23:13:13.445Z,7.20
2017-05-31T23:15:41.758Z,6.76
2017-05-31T23:18:10.058Z,7.86
2017-05-31T23:20:38.460Z,8.32
2017-05-31T23:23:06.755Z,7.80
2017-05-31T23:25:35.122Z,7.44
2017-05-31T23:28:03.510Z,8.50
2017-05-31T23:30:32.089Z,7.48
2017-05-31T23:33:00.464Z,8.60
2017-05-31T23:35:28.791Z,11.06
2017-05-31T23:37:57.121Z,8.08
2017-05-31T23:40:25.498Z,7.76
2017-05-31T23:42:53.881Z,7.94
2017-05-31T23:45:22.348Z,7.82
2017-05-31T23:47:50.733Z,8.14
2017-05-31T23:50:19.127Z,8.30
2017-05-31T23:52:47.465Z,8.48
2017-05-31T23:55:15.763Z,8.56
2017-05-31T23:57:44.061Z,8.04
